Little, Indiana
Current Conditions -  °F | °C
As of 4:15 AM on Tuesday 27 Jan 2015 (Local Time) from KDCY Reporting Station
Haze Haze  
Wind Chill: 25°   Ceiling: 500
Heat Index: 30°   Visibility: 4mi
Dew Point: 26°   Wind: 5mph
Humidity: 88%   Direction: 100°E
Pressure: 29.92"   Gusts: NA
Location:  38.4723°N, 87.3105°W
Report Text: KDCY 271015Z AUTO 10004KT 4SM BR OVC005 M01/M03 A2992 RMK AO2 T10131031
Loading
Personal Weather Stations






























Interactive Weather Map New forecast layout! Learn more

10-Day Weather Forecast

Advertisements
Track Severe Weather on mobile